createdAt,value
2018-11-26T00:00:33.143Z,94294.95
2018-11-26T00:03:02.410Z,94302.98
2018-11-26T00:05:31.688Z,94307.23
2018-11-26T00:08:00.891Z,94272.08
2018-11-26T00:10:40.759Z,94295.08
2018-11-26T00:13:10.034Z,94299.72
2018-11-26T00:15:39.447Z,94271.80
2018-11-26T00:18:08.819Z,94303.10
2018-11-26T00:20:38.218Z,94263.45
2018-11-26T00:23:08.678Z,94277.57
2018-11-26T00:25:37.895Z,94261.81
2018-11-26T00:28:07.282Z,94296.46
2018-11-26T00:30:36.977Z,94245.58
2018-11-26T00:33:06.354Z,94286.80
2018-11-26T00:35:35.492Z,94279.85
2018-11-26T00:38:04.961Z,94252.80
2018-11-26T00:40:34.405Z,94260.48
2018-11-26T00:43:03.695Z,94266.50
2018-11-26T00:45:33.011Z,94256.67
2018-11-26T00:48:02.310Z,94240.66
2018-11-26T00:50:31.754Z,94211.62
2018-11-26T00:53:01.116Z,94239.77
2018-11-26T00:55:30.420Z,94197.87
2018-11-26T00:57:59.734Z,94212.62
2018-11-26T01:00:29.015Z,94195.70
2018-11-26T01:02:58.281Z,94183.90
2018-11-26T01:05:37.899Z,94173.91
2018-11-26T01:08:07.448Z,94170.90
2018-11-26T01:10:36.660Z,94204.72
2018-11-26T01:13:06.507Z,94148.66
2018-11-26T01:15:35.887Z,94187.50
2018-11-26T01:18:05.579Z,94157.11
2018-11-26T01:20:35.070Z,94196.42
2018-11-26T01:23:04.270Z,94171.95
2018-11-26T01:25:33.365Z,94159.39
2018-11-26T01:28:02.801Z,94155.21
2018-11-26T01:30:33.156Z,94142.83
2018-11-26T01:33:02.310Z,94119.39
2018-11-26T01:35:31.946Z,94122.40
2018-11-26T01:38:01.354Z,94116.16
2018-11-26T01:40:35.592Z,94099.23
2018-11-26T01:43:04.827Z,94111.80
2018-11-26T01:45:34.067Z,94080.81
2018-11-26T01:48:03.293Z,94074.03
2018-11-26T01:50:32.439Z,94074.65
2018-11-26T01:53:01.667Z,94064.20
2018-11-26T01:55:30.962Z,94061.47
2018-11-26T01:58:00.167Z,94057.07
2018-11-26T02:00:29.457Z,94054.67
2018-11-26T02:02:58.855Z,94052.25
2018-11-26T02:05:28.263Z,94038.19
2018-11-26T02:07:57.471Z,94043.45
2018-11-26T02:10:27.030Z,94036.06
2018-11-26T02:12:56.243Z,94039.38
2018-11-26T02:15:36.658Z,94014.42
2018-11-26T02:18:05.801Z,94016.09
2018-11-26T02:20:34.823Z,94013.98
2018-11-26T02:23:04.341Z,94021.41
2018-11-26T02:25:33.748Z,94023.21
2018-11-26T02:28:03.050Z,94010.36
2018-11-26T02:30:32.528Z,94011.89
2018-11-26T02:33:01.663Z,94008.71
2018-11-26T02:35:30.868Z,94021.86
2018-11-26T02:38:00.460Z,94020.20
2018-11-26T02:40:30.650Z,94013.27
2018-11-26T02:42:59.984Z,94032.59
2018-11-26T02:45:29.578Z,94011.73
2018-11-26T02:47:58.755Z,94004.78
2018-11-26T02:50:27.958Z,94032.45
2018-11-26T02:52:57.326Z,94031.26
2018-11-26T02:55:26.455Z,94039.25
2018-11-26T02:57:55.650Z,94049.67
2018-11-26T03:00:25.056Z,94021.87
2018-11-26T03:02:54.270Z,94038.67
2018-11-26T03:05:29.005Z,94028.23
2018-11-26T03:07:58.247Z,94024.59
2018-11-26T03:10:27.548Z,94020.66
2018-11-26T03:12:57.106Z,94025.20
2018-11-26T03:15:26.407Z,94033.83
2018-11-26T03:17:55.699Z,94025.98
2018-11-26T03:20:25.185Z,94044.25
2018-11-26T03:22:54.287Z,94027.91
2018-11-26T03:25:23.445Z,94008.55
2018-11-26T03:27:53.196Z,94012.19
2018-11-26T03:30:23.158Z,93964.86
2018-11-26T03:32:52.326Z,93996.62
2018-11-26T03:35:21.816Z,93979.52
2018-11-26T03:37:51.174Z,93997.38
2018-11-26T03:40:20.456Z,93991.17
2018-11-26T03:42:49.954Z,93965.30
2018-11-26T03:45:19.270Z,93986.77
2018-11-26T03:47:48.450Z,93978.00
2018-11-26T03:50:17.664Z,93961.98
2018-11-26T03:52:46.934Z,93951.54
2018-11-26T03:55:16.086Z,93966.83
2018-11-26T03:57:45.623Z,93961.38
2018-11-26T04:00:17.071Z,93947.17
2018-11-26T04:02:46.487Z,93963.97
2018-11-26T04:05:15.699Z,93970.33
2018-11-26T04:07:44.850Z,93950.52
2018-11-26T04:10:14.758Z,93931.34
2018-11-26T04:12:44.154Z,93937.38
2018-11-26T04:15:14.723Z,93924.69
2018-11-26T04:17:44.099Z,93928.61
2018-11-26T04:20:13.382Z,93938.13
2018-11-26T04:22:42.483Z,93921.52
2018-11-26T04:25:11.998Z,93926.80
2018-11-26T04:27:41.255Z,93906.40
2018-11-26T04:30:11.777Z,93933.29
2018-11-26T04:32:41.742Z,93897.02
2018-11-26T04:35:11.119Z,93957.03
2018-11-26T04:37:40.387Z,93950.53
2018-11-26T04:40:10.737Z,93951.58
2018-11-26T04:42:40.011Z,93918.33
2018-11-26T04:45:10.613Z,93909.13
2018-11-26T04:47:40.201Z,93946.16
2018-11-26T04:50:12.463Z,93937.38
2018-11-26T04:52:41.897Z,93913.20
2018-11-26T04:55:12.362Z,93928.92
2018-11-26T04:57:42.753Z,93916.36
2018-11-26T05:00:12.394Z,93903.21
2018-11-26T05:02:41.650Z,93909.28
2018-11-26T05:05:12.704Z,93914.27
2018-11-26T05:07:42.271Z,93904.88
2018-11-26T05:10:13.595Z,93898.55
2018-11-26T05:12:43.179Z,93900.20
2018-11-26T05:15:13.351Z,93921.98
2018-11-26T05:17:42.583Z,93919.55
2018-11-26T05:20:13.959Z,93937.37
2018-11-26T05:22:43.271Z,93894.61
2018-11-26T05:25:12.973Z,93918.17
2018-11-26T05:27:41.883Z,93911.09
2018-11-26T05:30:12.863Z,93895.49
2018-11-26T05:32:42.174Z,93907.30
2018-11-26T05:35:12.551Z,93874.96
2018-11-26T05:37:41.803Z,93878.73
2018-11-26T05:40:13.088Z,93900.34
2018-11-26T05:42:42.526Z,93865.56
2018-11-26T05:45:12.905Z,93882.20
2018-11-26T05:47:42.588Z,93890.21
2018-11-26T05:50:13.759Z,93872.04
2018-11-26T05:52:43.316Z,93890.33
2018-11-26T05:55:15.194Z,93880.80
2018-11-26T05:57:45.016Z,93908.75
2018-11-26T06:00:16.791Z,93875.04
2018-11-26T06:02:46.496Z,93881.56
2018-11-26T06:05:15.706Z,93890.45
2018-11-26T06:07:45.003Z,93889.41
2018-11-26T06:10:14.500Z,93880.21
2018-11-26T06:12:43.815Z,93874.59
2018-11-26T06:15:13.691Z,93870.20
2018-11-26T06:17:42.822Z,93863.43
2018-11-26T06:20:13.251Z,93896.66
2018-11-26T06:22:44.055Z,93902.86
2018-11-26T06:25:17.681Z,93904.16
2018-11-26T06:27:47.489Z,93899.95
2018-11-26T06:30:17.512Z,93902.80
2018-11-26T06:32:46.824Z,93891.69
2018-11-26T06:35:23.603Z,93868.22
2018-11-26T06:37:54.116Z,93891.21
2018-11-26T06:40:22.301Z,93878.61
2018-11-26T06:42:51.702Z,93887.83
2018-11-26T06:45:23.594Z,93877.27
2018-11-26T06:47:53.374Z,93885.56
2018-11-26T06:50:22.640Z,93873.29
2018-11-26T06:52:51.745Z,93863.86
2018-11-26T06:55:21.826Z,93877.94
2018-11-26T06:57:51.204Z,93879.16
2018-11-26T07:00:21.247Z,93852.68
2018-11-26T07:02:50.843Z,93870.73
2018-11-26T07:05:22.322Z,93880.38
2018-11-26T07:07:52.040Z,93874.20
2018-11-26T07:10:21.595Z,93867.45
2018-11-26T07:12:50.910Z,93860.28
2018-11-26T07:15:21.530Z,93891.98
2018-11-26T07:17:51.016Z,93879.70
2018-11-26T07:20:21.162Z,93895.70
2018-11-26T07:22:51.127Z,93879.50
2018-11-26T07:25:21.365Z,93877.22
2018-11-26T07:27:54.709Z,93883.77
2018-11-26T07:30:26.748Z,93855.47
2018-11-26T07:32:56.299Z,93858.26
2018-11-26T07:35:25.687Z,93851.66
2018-11-26T07:37:55.091Z,93871.26
2018-11-26T07:40:24.916Z,93860.44
2018-11-26T07:42:57.782Z,93884.39
2018-11-26T07:45:26.995Z,93892.23
2018-11-26T07:47:56.352Z,93880.80
2018-11-26T07:50:25.675Z,93869.44
2018-11-26T07:52:55.167Z,93902.13
2018-11-26T07:55:24.408Z,93873.84
2018-11-26T07:57:53.710Z,93867.43
2018-11-26T08:00:23.420Z,93887.91
2018-11-26T08:02:52.678Z,93860.03
2018-11-26T08:05:22.617Z,93877.62
2018-11-26T08:07:52.244Z,93891.48
2018-11-26T08:10:22.331Z,93885.73
2018-11-26T08:12:53.840Z,93903.91
2018-11-26T08:15:23.971Z,93890.93
2018-11-26T08:17:53.332Z,93901.52
2018-11-26T08:20:22.735Z,93902.17
2018-11-26T08:22:52.247Z,93894.67
2018-11-26T08:25:22.502Z,93885.83
2018-11-26T08:27:52.376Z,93896.97
2018-11-26T08:30:28.744Z,93898.52
2018-11-26T08:32:59.989Z,93887.27
2018-11-26T08:35:29.788Z,93906.37
2018-11-26T08:38:04.151Z,93879.23
2018-11-26T08:40:38.346Z,93895.92
2018-11-26T08:43:07.601Z,93905.28
2018-11-26T08:45:37.344Z,93889.14
2018-11-26T08:48:15.325Z,93901.91
2018-11-26T08:50:44.832Z,93881.03
2018-11-26T08:53:14.082Z,93862.54
2018-11-26T08:55:43.468Z,93887.72
2018-11-26T08:58:12.762Z,93858.33
2018-11-26T09:00:41.930Z,93874.77
2018-11-26T09:03:16.280Z,93885.48
2018-11-26T09:05:46.279Z,93859.98
2018-11-26T09:08:15.826Z,93862.16
2018-11-26T09:10:45.199Z,93872.10
2018-11-26T09:13:14.326Z,93854.96
2018-11-26T09:15:43.650Z,93854.16
2018-11-26T09:18:13.162Z,93851.70
2018-11-26T09:20:42.343Z,93856.02
2018-11-26T09:23:11.495Z,93844.31
2018-11-26T09:25:40.755Z,93839.89
2018-11-26T09:28:10.003Z,93840.22
2018-11-26T09:30:39.157Z,93836.69
2018-11-26T09:33:08.587Z,93804.39
2018-11-26T09:35:37.720Z,93809.86
2018-11-26T09:38:07.122Z,93811.27
2018-11-26T09:40:36.476Z,93817.68
2018-11-26T09:43:06.475Z,93814.41
2018-11-26T09:45:40.102Z,93812.00
2018-11-26T09:48:05.020Z,93797.93
2018-11-26T09:50:33.935Z,93792.05
2018-11-26T09:53:02.940Z,93790.65
2018-11-26T09:55:32.196Z,93801.96
2018-11-26T09:58:01.127Z,93782.47
2018-11-26T10:00:30.903Z,93792.56
2018-11-26T10:02:59.875Z,93809.06
2018-11-26T10:05:28.820Z,93783.59
2018-11-26T10:07:57.736Z,93767.30
2018-11-26T10:10:27.440Z,93782.34
2018-11-26T10:12:56.590Z,93771.30
2018-11-26T10:15:27.188Z,93774.63
2018-11-26T10:17:56.156Z,93755.41
2018-11-26T10:20:25.098Z,93763.69
2018-11-26T10:22:54.659Z,93752.80
2018-11-26T10:25:24.144Z,93748.21
2018-11-26T10:27:53.167Z,93752.00
2018-11-26T10:30:23.515Z,93726.97
2018-11-26T10:32:53.457Z,93754.73
2018-11-26T10:35:22.807Z,93738.13
2018-11-26T10:37:51.904Z,93735.72
2018-11-26T10:40:23.953Z,93729.37
2018-11-26T10:42:52.962Z,93729.98
2018-11-26T10:45:22.992Z,93744.55
2018-11-26T10:47:52.202Z,93721.55
2018-11-26T10:50:22.817Z,93727.78
2018-11-26T10:52:56.940Z,93725.00
2018-11-26T10:55:34.513Z,93705.17
2018-11-26T10:58:03.888Z,93715.54
2018-11-26T11:00:38.195Z,93714.00
2018-11-26T11:03:07.863Z,93711.95
2018-11-26T11:05:37.963Z,93727.47
2018-11-26T11:08:07.926Z,93711.16
2018-11-26T11:10:37.222Z,93714.05
2018-11-26T11:13:06.866Z,93689.41
2018-11-26T11:15:35.996Z,93722.41
2018-11-26T11:18:05.815Z,93720.28
2018-11-26T11:20:34.951Z,93692.20
2018-11-26T11:23:03.917Z,93715.51
2018-11-26T11:25:33.631Z,93693.79
2018-11-26T11:28:02.646Z,93717.44
2018-11-26T11:30:31.608Z,93704.16
2018-11-26T11:35:28.840Z,93684.53
2018-11-26T11:37:57.666Z,93689.54
2018-11-26T11:40:30.095Z,93686.95
2018-11-26T11:43:00.046Z,93681.08
2018-11-26T11:45:29.832Z,93655.63
2018-11-26T11:47:59.026Z,93648.40
2018-11-26T11:50:27.924Z,93659.00
2018-11-26T11:52:56.791Z,93671.61
2018-11-26T11:55:27.068Z,93663.38
2018-11-26T11:57:56.080Z,93663.77
2018-11-26T12:00:34.740Z,93658.89
2018-11-26T12:03:05.929Z,93660.00
2018-11-26T12:05:34.865Z,93677.00
2018-11-26T12:08:04.211Z,93651.13
2018-11-26T12:10:33.206Z,93624.65
2018-11-26T12:13:02.200Z,93625.91
2018-11-26T12:15:31.330Z,93624.55
2018-11-26T12:18:00.299Z,93634.06
2018-11-26T12:20:29.293Z,93646.28
2018-11-26T12:22:58.582Z,93627.20
2018-11-26T12:25:27.477Z,93628.67
2018-11-26T12:27:56.360Z,93625.42
2018-11-26T12:30:27.084Z,93631.67
2018-11-26T12:32:56.027Z,93630.06
2018-11-26T12:35:25.372Z,93634.03
2018-11-26T12:37:54.697Z,93630.17
2018-11-26T12:40:24.801Z,93621.19
2018-11-26T12:42:54.897Z,93624.69
2018-11-26T12:45:26.036Z,93612.56
2018-11-26T12:47:55.569Z,93607.70
2018-11-26T12:50:24.836Z,93598.22
2018-11-26T12:52:54.518Z,93581.64
2018-11-26T12:55:24.345Z,93596.36
2018-11-26T12:57:54.206Z,93589.48
2018-11-26T13:00:24.640Z,93604.34
2018-11-26T13:02:59.754Z,93598.60
2018-11-26T13:05:29.218Z,93606.19
2018-11-26T13:07:58.400Z,93592.42
2018-11-26T13:10:27.648Z,93594.88
2018-11-26T13:12:57.217Z,93584.28
2018-11-26T13:15:28.436Z,93578.52
2018-11-26T13:17:58.064Z,93575.15
2018-11-26T13:20:29.325Z,93574.66
2018-11-26T13:22:58.619Z,93575.36
2018-11-26T13:25:32.210Z,93577.59
2018-11-26T13:28:03.375Z,93579.34
2018-11-26T13:30:33.940Z,93582.58
2018-11-26T13:33:04.460Z,93589.98
2018-11-26T13:35:33.582Z,93603.89
2018-11-26T13:38:02.993Z,93604.59
2018-11-26T13:40:32.472Z,93612.97
2018-11-26T13:43:01.676Z,93612.94
2018-11-26T13:45:41.728Z,93600.20
2018-11-26T13:48:12.145Z,93604.69
2018-11-26T13:50:47.130Z,93604.91
2018-11-26T13:53:16.728Z,93604.58
2018-11-26T13:55:45.603Z,93597.76
2018-11-26T13:58:14.808Z,93606.45
2018-11-26T14:00:44.151Z,93604.19
2018-11-26T14:03:13.527Z,93605.70
2018-11-26T14:05:42.927Z,93605.97
2018-11-26T14:08:12.512Z,93605.17
2018-11-26T14:10:41.816Z,93608.05
2018-11-26T14:13:14.356Z,93615.46
2018-11-26T14:15:43.419Z,93613.99
2018-11-26T14:18:12.384Z,93625.28
2018-11-26T14:20:41.632Z,93625.97
2018-11-26T14:23:10.901Z,93640.66
2018-11-26T14:25:40.198Z,93643.19
2018-11-26T14:28:09.820Z,93638.84
2018-11-26T14:30:39.115Z,93629.21
2018-11-26T14:33:08.420Z,93610.39
2018-11-26T14:35:37.655Z,93624.39
2018-11-26T14:38:09.080Z,93626.39
2018-11-26T14:40:47.104Z,93622.27
2018-11-26T14:43:16.350Z,93619.05
2018-11-26T14:45:45.659Z,93622.18
2018-11-26T14:48:14.912Z,93614.41
2018-11-26T14:50:44.066Z,93619.28
2018-11-26T14:53:16.032Z,93615.67
2018-11-26T14:55:45.149Z,93612.05
2018-11-26T14:58:14.328Z,93611.69
2018-11-26T15:00:43.851Z,93606.33
2018-11-26T15:03:13.122Z,93609.70
2018-11-26T15:05:42.557Z,93607.30
2018-11-26T15:08:11.970Z,93612.18
2018-11-26T15:10:41.370Z,93623.30
2018-11-26T15:13:10.652Z,93625.78
2018-11-26T15:15:40.317Z,93622.92
2018-11-26T15:18:09.541Z,93623.93
2018-11-26T15:20:38.705Z,93625.03
2018-11-26T15:23:08.204Z,93621.52
2018-11-26T15:25:37.463Z,93627.53
2018-11-26T15:28:13.011Z,93628.27
2018-11-26T15:30:42.223Z,93632.69
2018-11-26T15:33:11.489Z,93635.93
2018-11-26T15:35:41.019Z,93631.42
2018-11-26T15:38:10.212Z,93636.03
2018-11-26T15:40:39.692Z,93630.16
2018-11-26T15:43:08.969Z,93634.39
2018-11-26T15:45:38.551Z,93628.53
2018-11-26T15:48:10.668Z,93621.41
2018-11-26T15:50:39.952Z,93629.56
2018-11-26T15:53:09.933Z,93630.69
2018-11-26T15:55:39.516Z,93631.56
2018-11-26T15:58:09.532Z,93630.05
2018-11-26T16:00:38.801Z,93633.80
2018-11-26T16:03:08.420Z,93634.15
2018-11-26T16:05:37.866Z,93645.90
2018-11-26T16:08:10.405Z,93644.03
2018-11-26T16:10:39.739Z,93647.53
2018-11-26T16:13:09.846Z,93651.66
2018-11-26T16:15:40.497Z,93631.69
2018-11-26T16:18:11.181Z,93652.02
2018-11-26T16:20:40.535Z,93644.41
2018-11-26T16:23:11.267Z,93647.54
2018-11-26T16:25:42.689Z,93648.03
2018-11-26T16:28:13.605Z,93651.04
2018-11-26T16:30:42.756Z,93648.78
2018-11-26T16:33:12.388Z,93660.02
2018-11-26T16:35:42.155Z,93661.77
2018-11-26T16:38:12.043Z,93653.53
2018-11-26T16:40:41.290Z,93650.77
2018-11-26T16:43:10.765Z,93650.89
2018-11-26T16:45:40.000Z,93669.86
2018-11-26T16:48:09.100Z,93667.75
2018-11-26T16:50:38.929Z,93658.38
2018-11-26T16:53:08.387Z,93667.72
2018-11-26T16:55:37.548Z,93660.63
2018-11-26T16:58:06.957Z,93666.34
2018-11-26T17:00:36.005Z,93667.23
2018-11-26T17:03:05.197Z,93673.98
2018-11-26T17:05:39.593Z,93674.97
2018-11-26T17:08:11.062Z,93685.99
2018-11-26T17:10:40.628Z,93679.25
2018-11-26T17:13:10.172Z,93685.74
2018-11-26T17:15:39.397Z,93687.84
2018-11-26T17:18:09.264Z,93697.22
2018-11-26T17:20:38.817Z,93688.71
2018-11-26T17:23:08.343Z,93688.72
2018-11-26T17:25:37.956Z,93689.78
2018-11-26T17:28:07.461Z,93691.88
2018-11-26T17:30:37.217Z,93690.00
2018-11-26T17:33:08.027Z,93699.19
2018-11-26T17:35:37.160Z,93692.81
2018-11-26T17:38:07.073Z,93699.91
2018-11-26T17:40:36.709Z,93691.78
2018-11-26T17:43:06.165Z,93701.24
2018-11-26T17:45:35.376Z,93706.38
2018-11-26T17:48:04.669Z,93709.19
2018-11-26T17:50:37.077Z,93702.00
2018-11-26T17:53:08.575Z,93709.13
2018-11-26T17:55:46.065Z,93696.27
2018-11-26T17:58:15.384Z,93707.47
2018-11-26T18:00:45.552Z,93706.45
2018-11-26T18:03:14.771Z,93701.53
2018-11-26T18:05:44.224Z,93709.04
2018-11-26T18:08:15.040Z,93707.67
2018-11-26T18:10:44.334Z,93714.76
2018-11-26T18:13:14.158Z,93710.30
2018-11-26T18:15:43.430Z,93711.44
2018-11-26T18:18:18.309Z,93709.72
2018-11-26T18:20:47.985Z,93708.72
2018-11-26T18:23:17.300Z,93704.37
2018-11-26T18:25:46.840Z,93696.78
2018-11-26T18:28:17.111Z,93692.39
2018-11-26T18:30:49.956Z,93707.11
2018-11-26T18:33:19.113Z,93698.74
2018-11-26T18:35:48.836Z,93702.59
2018-11-26T18:38:18.442Z,93712.14
2018-11-26T18:40:49.028Z,93709.17
2018-11-26T18:43:18.316Z,93709.28
2018-11-26T18:45:47.799Z,93708.13
2018-11-26T18:48:17.123Z,93720.97
2018-11-26T18:50:46.328Z,93722.41
2018-11-26T18:53:15.724Z,93711.44
2018-11-26T18:55:44.932Z,93713.39
2018-11-26T18:58:14.134Z,93711.50
2018-11-26T19:00:46.189Z,93708.76
2018-11-26T19:03:20.391Z,93718.35
2018-11-26T19:05:51.093Z,93709.78
2018-11-26T19:08:20.396Z,93716.55
2018-11-26T19:10:58.092Z,93705.84
2018-11-26T19:13:34.861Z,93712.60
2018-11-26T19:16:09.816Z,93712.73
2018-11-26T19:18:39.194Z,93709.75
2018-11-26T19:21:08.593Z,93709.75
2018-11-26T19:23:37.904Z,93711.70
2018-11-26T19:26:07.312Z,93713.32
2018-11-26T19:28:36.464Z,93722.72
2018-11-26T19:31:06.634Z,93729.78
2018-11-26T19:33:35.925Z,93727.00
2018-11-26T19:36:05.194Z,93735.56
2018-11-26T19:38:34.916Z,93727.05
2018-11-26T19:41:04.131Z,93731.36
2018-11-26T19:43:33.101Z,93734.01
2018-11-26T19:46:02.588Z,93731.88
2018-11-26T19:48:31.984Z,93736.42
2018-11-26T19:51:00.946Z,93734.87
2018-11-26T19:53:30.726Z,93733.97
2018-11-26T19:56:00.048Z,93734.81
2018-11-26T19:58:29.140Z,93740.88
2018-11-26T20:00:58.632Z,93743.45
2018-11-26T20:03:32.880Z,93742.23
2018-11-26T20:06:05.045Z,93744.84
2018-11-26T20:08:34.328Z,93742.43
2018-11-26T20:11:03.648Z,93737.93
2018-11-26T20:13:33.252Z,93735.85
2018-11-26T20:16:03.377Z,93739.73
2018-11-26T20:18:32.699Z,93750.88
2018-11-26T20:21:02.284Z,93749.41
2018-11-26T20:23:31.659Z,93753.99
2018-11-26T20:26:00.851Z,93755.11
2018-11-26T20:28:30.080Z,93757.58
2018-11-26T20:30:59.190Z,93768.61
2018-11-26T20:33:28.574Z,93777.59
2018-11-26T20:35:58.312Z,93765.97
2018-11-26T20:38:27.594Z,93767.16
2018-11-26T20:40:56.860Z,93765.86
2018-11-26T20:43:26.715Z,93757.55
2018-11-26T20:45:56.023Z,93762.36
2018-11-26T20:48:30.327Z,93751.27
2018-11-26T20:50:54.952Z,93758.40
2018-11-26T20:53:25.825Z,93750.98
2018-11-26T20:55:55.162Z,93750.94
2018-11-26T20:58:24.662Z,93759.59
2018-11-26T21:00:53.867Z,93766.02
2018-11-26T21:03:23.364Z,93762.14
2018-11-26T21:05:53.433Z,93757.92
2018-11-26T21:08:22.964Z,93760.95
2018-11-26T21:10:52.397Z,93761.53
2018-11-26T21:13:22.069Z,93761.39
2018-11-26T21:16:13.406Z,93759.45
2018-11-26T21:18:46.460Z,93758.74
2018-11-26T21:21:16.105Z,93756.67
2018-11-26T21:23:45.604Z,93772.75
2018-11-26T21:26:15.396Z,93775.02
2018-11-26T21:28:44.872Z,93773.12
2018-11-26T21:31:14.399Z,93779.16
2018-11-26T21:33:44.308Z,93778.73
2018-11-26T21:36:13.916Z,93786.44
2018-11-26T21:38:43.352Z,93786.05
2018-11-26T21:41:13.134Z,93785.73
2018-11-26T21:43:42.837Z,93784.08
2018-11-26T21:46:12.396Z,93781.34
2018-11-26T21:48:42.002Z,93781.00
2018-11-26T21:51:11.656Z,93780.56
2018-11-26T21:53:41.177Z,93786.19
2018-11-26T21:56:11.045Z,93792.02
2018-11-26T21:58:40.747Z,93796.19
2018-11-26T22:01:10.733Z,93799.44
2018-11-26T22:03:40.627Z,93809.05
2018-11-26T22:06:10.304Z,93799.14
2018-11-26T22:08:39.897Z,93810.65
2018-11-26T22:11:09.753Z,93816.58
2018-11-26T22:13:39.280Z,93815.98
2018-11-26T22:16:08.900Z,93820.44
2018-11-26T22:18:38.696Z,93816.21
2018-11-26T22:21:08.412Z,93824.76
2018-11-26T22:23:37.871Z,93819.87
2018-11-26T22:26:07.372Z,93823.82
2018-11-26T22:28:37.260Z,93835.16
2018-11-26T22:31:06.888Z,93831.98
2018-11-26T22:33:36.790Z,93831.20
2018-11-26T22:36:06.385Z,93838.47
2018-11-26T22:38:35.903Z,93846.89
2018-11-26T22:41:05.884Z,93847.07
2018-11-26T22:43:35.182Z,93851.92
2018-11-26T22:46:04.336Z,93850.09
2018-11-26T22:48:33.616Z,93853.73
2018-11-26T22:51:02.840Z,93861.88
2018-11-26T22:53:32.056Z,93874.13
2018-11-26T22:56:01.318Z,93885.22
2018-11-26T22:58:30.680Z,93886.41
2018-11-26T23:00:59.972Z,93888.41
2018-11-26T23:03:32.652Z,93895.98
2018-11-26T23:06:01.647Z,93911.39
2018-11-26T23:08:30.704Z,93914.84
2018-11-26T23:11:00.136Z,93918.69
2018-11-26T23:13:29.309Z,93928.45
2018-11-26T23:15:58.325Z,93940.98
2018-11-26T23:18:27.443Z,93949.48
2018-11-26T23:20:56.744Z,93947.16
2018-11-26T23:23:25.936Z,93946.86
2018-11-26T23:25:55.657Z,93954.14
2018-11-26T23:28:24.777Z,93953.73
2018-11-26T23:30:53.951Z,93945.23
2018-11-26T23:33:23.560Z,93948.73
2018-11-26T23:35:52.659Z,93942.84
2018-11-26T23:38:21.844Z,93934.34
2018-11-26T23:40:51.366Z,93943.98
2018-11-26T23:43:20.672Z,93938.66
2018-11-26T23:45:49.886Z,93932.98
2018-11-26T23:48:19.203Z,93931.61
2018-11-26T23:50:48.330Z,93936.32
2018-11-26T23:53:17.556Z,93936.52
2018-11-26T23:55:47.164Z,93939.38
2018-11-26T23:58:16.340Z,93938.45
